createdAt,value
2018-11-20T00:03:59.877Z,11.55
2018-11-20T00:06:27.199Z,11.22
2018-11-20T00:11:24.332Z,16.67
2018-11-20T00:14:15.633Z,14.65
2018-11-20T00:19:17.577Z,12.95
2018-11-20T00:21:47.730Z,14.20
2018-11-20T00:24:23.863Z,11.78
2018-11-20T00:26:51.905Z,17.85
2018-11-20T00:36:50.168Z,16.50
2018-11-20T00:39:20.340Z,14.23
2018-11-20T00:44:17.233Z,13.00
2018-11-20T00:49:15.977Z,17.07
2018-11-20T00:54:14.837Z,15.00
2018-11-20T00:59:18.515Z,18.02
2018-11-20T01:04:19.308Z,16.23
2018-11-20T01:06:49.364Z,17.52
2018-11-20T01:09:24.992Z,17.32
2018-11-20T01:14:16.974Z,17.48
2018-11-20T01:19:18.263Z,20.82
2018-11-20T01:24:19.836Z,19.20
2018-11-20T01:29:18.929Z,22.32
2018-11-20T01:39:27.683Z,22.30
2018-11-20T01:44:28.461Z,15.75
2018-11-20T01:52:39.332Z,21.20
2018-11-20T01:57:37.529Z,22.17
2018-11-20T02:02:37.082Z,21.37
2018-11-20T02:07:36.587Z,20.68
2018-11-20T02:12:36.376Z,23.75
2018-11-20T02:20:02.893Z,22.98
2018-11-20T02:27:33.001Z,23.52
2018-11-20T02:32:47.104Z,25.72
2018-11-20T02:37:47.151Z,25.25
2018-11-20T02:40:14.512Z,20.72
2018-11-20T02:45:13.027Z,23.40
2018-11-20T02:50:09.668Z,24.37
2018-11-20T02:52:37.885Z,23.35
2018-11-20T02:57:35.357Z,23.85
2018-11-20T03:02:32.118Z,21.80
2018-11-20T03:18:05.774Z,23.83
2018-11-20T03:23:14.893Z,21.57
2018-11-20T03:51:47.173Z,23.12
2018-11-20T03:54:17.038Z,21.27
2018-11-20T03:59:14.743Z,22.75
2018-11-20T04:09:12.185Z,24.37
2018-11-20T04:14:10.375Z,20.52
2018-11-20T04:19:10.145Z,23.12
2018-11-20T04:25:34.955Z,23.85
2018-11-20T04:30:40.512Z,24.35
2018-11-20T04:36:24.058Z,20.43
2018-11-20T04:38:50.964Z,26.10
2018-11-20T04:46:18.204Z,24.60
2018-11-20T04:51:37.955Z,23.55
2018-11-20T04:56:35.225Z,24.60
2018-11-20T05:01:34.601Z,21.05
2018-11-20T05:04:04.666Z,20.65
2018-11-20T05:09:03.451Z,24.32
2018-11-20T05:19:27.515Z,22.00
2018-11-20T05:24:25.883Z,22.48
2018-11-20T05:34:54.988Z,25.77
2018-11-20T05:37:24.242Z,30.02
2018-11-20T05:47:54.361Z,28.02
2018-11-20T05:50:24.251Z,19.75
2018-11-20T05:56:14.916Z,22.40
2018-11-20T05:58:42.437Z,25.00
2018-11-20T06:01:25.479Z,21.05
2018-11-20T06:06:33.731Z,25.57
2018-11-20T06:09:03.565Z,23.12
2018-11-20T06:14:01.556Z,26.10
2018-11-20T06:19:05.803Z,23.80
2018-11-20T06:24:05.035Z,24.30
2018-11-20T06:29:15.496Z,25.45
2018-11-20T06:36:41.156Z,25.08
2018-11-20T06:41:38.016Z,27.27
2018-11-20T06:49:11.132Z,23.73
2018-11-20T06:56:42.543Z,24.55
2018-11-20T06:59:12.548Z,24.32
2018-11-20T07:04:13.249Z,23.62
2018-11-20T07:09:11.002Z,27.80
2018-11-20T07:16:46.791Z,21.85
2018-11-20T07:19:16.843Z,21.73
2018-11-20T07:24:16.731Z,27.00
2018-11-20T07:29:14.504Z,24.92
2018-11-20T07:34:19.328Z,23.98
2018-11-20T07:41:47.705Z,21.35
2018-11-20T07:46:44.929Z,22.10
2018-11-20T07:51:41.463Z,22.93
2018-11-20T07:56:39.815Z,21.55
2018-11-20T08:01:38.401Z,25.00
2018-11-20T08:06:36.075Z,23.90
2018-11-20T08:11:35.282Z,26.23
2018-11-20T08:19:09.075Z,27.05
2018-11-20T08:21:37.434Z,24.20
2018-11-20T08:29:12.860Z,27.52
2018-11-20T08:31:42.889Z,24.40
2018-11-20T08:36:44.118Z,25.77
2018-11-20T08:41:43.698Z,29.10
2018-11-20T08:44:13.525Z,24.87
2018-11-20T08:46:43.519Z,24.60
2018-11-20T08:51:42.389Z,23.60
2018-11-20T08:56:40.066Z,33.83
2018-11-20T09:01:40.911Z,22.60
2018-11-20T09:06:40.630Z,24.77
2018-11-20T09:11:57.812Z,28.12
2018-11-20T09:16:56.963Z,28.75
2018-11-20T09:22:02.035Z,29.55
2018-11-20T09:24:30.555Z,25.57
2018-11-20T09:29:29.923Z,25.00
2018-11-20T09:34:31.795Z,24.92
2018-11-20T09:39:31.218Z,27.15
2018-11-20T09:47:03.903Z,27.07
2018-11-20T09:49:33.535Z,25.92
2018-11-20T09:57:02.512Z,28.60
2018-11-20T10:02:02.151Z,28.80
2018-11-20T10:04:32.472Z,30.00
2018-11-20T10:09:31.606Z,32.67
2018-11-20T10:14:31.262Z,24.27
2018-11-20T10:19:30.343Z,28.73
2018-11-20T10:24:30.164Z,26.12
2018-11-20T10:29:29.632Z,28.00
2018-11-20T10:34:30.816Z,24.80
2018-11-20T10:39:28.569Z,25.12
2018-11-20T10:44:27.881Z,29.57
2018-11-20T10:49:26.860Z,27.87
2018-11-20T10:56:56.651Z,33.78
2018-11-20T10:59:26.498Z,23.98
2018-11-20T11:04:23.971Z,27.50
2018-11-20T11:09:53.336Z,31.50
2018-11-20T11:14:52.040Z,25.88
2018-11-20T11:19:52.116Z,26.70
2018-11-20T11:27:22.599Z,25.88
2018-11-20T11:29:52.333Z,27.45
2018-11-20T11:40:30.773Z,29.18
2018-11-20T11:43:38.113Z,30.00
2018-11-20T11:46:45.423Z,25.62
2018-11-20T11:49:52.826Z,26.75
2018-11-20T11:52:41.450Z,27.65
2018-11-20T11:55:48.638Z,27.67
2018-11-20T11:58:36.934Z,31.55
2018-11-20T12:04:50.713Z,24.35
2018-11-20T12:07:57.934Z,27.45
2018-11-20T12:11:05.183Z,28.00
2018-11-20T12:14:12.423Z,26.12
2018-11-20T12:17:00.659Z,28.95
2018-11-20T12:19:48.899Z,26.50
2018-11-20T12:22:56.133Z,29.25
2018-11-20T12:26:03.394Z,29.72
2018-11-20T12:29:10.651Z,32.33
2018-11-20T12:32:20.603Z,29.25
2018-11-20T12:35:33.175Z,28.05
2018-11-20T12:38:35.105Z,31.73
2018-11-20T12:41:23.346Z,33.75
2018-11-20T12:44:05.950Z,28.98
2018-11-20T12:47:15.141Z,27.48
2018-11-20T12:49:51.948Z,28.65
2018-11-20T12:52:38.261Z,28.67
2018-11-20T12:55:07.864Z,26.37
2018-11-20T13:00:09.387Z,33.40
2018-11-20T13:05:09.467Z,31.15
2018-11-20T13:10:07.040Z,31.35
2018-11-20T13:17:35.885Z,28.75
2018-11-20T13:22:31.159Z,30.97
2018-11-20T13:27:29.255Z,28.55
2018-11-20T13:32:32.570Z,30.57
2018-11-20T13:37:51.842Z,35.52
2018-11-20T13:42:51.845Z,31.77
2018-11-20T13:47:47.967Z,27.90
2018-11-20T13:52:44.560Z,29.98
2018-11-20T13:58:20.741Z,28.07
2018-11-20T14:03:16.952Z,26.77
2018-11-20T14:08:13.464Z,25.25
2018-11-20T14:13:12.745Z,25.48
2018-11-20T14:18:10.613Z,25.48
2018-11-20T14:23:09.872Z,22.45
2018-11-20T14:28:08.767Z,22.98
2018-11-20T14:33:05.811Z,20.08
2018-11-20T14:38:05.779Z,21.62
2018-11-20T14:43:01.835Z,20.45
2018-11-20T14:48:37.979Z,19.35
2018-11-20T14:53:35.530Z,19.30
2018-11-20T14:58:34.993Z,17.12
2018-11-20T15:03:34.567Z,16.55
2018-11-20T15:06:15.204Z,17.40
2018-11-20T15:08:45.459Z,13.65
2018-11-20T15:16:15.951Z,15.95
2018-11-20T15:18:46.081Z,12.65
2018-11-20T15:21:35.680Z,13.75
2018-11-20T15:24:05.412Z,13.40
2018-11-20T15:29:04.431Z,12.00
2018-11-20T15:34:03.423Z,11.73
2018-11-20T15:39:03.971Z,14.03
2018-11-20T15:44:03.006Z,12.30
2018-11-20T15:49:00.253Z,12.95
2018-11-20T15:57:07.306Z,12.13
2018-11-20T15:59:37.274Z,12.25
2018-11-20T16:04:36.069Z,13.32
2018-11-20T16:09:32.892Z,11.35
2018-11-20T16:17:40.684Z,13.48
2018-11-20T16:20:08.382Z,15.98
2018-11-20T16:25:11.206Z,12.33
2018-11-20T16:30:10.871Z,14.38
2018-11-20T16:35:10.288Z,12.95
2018-11-20T16:40:08.112Z,11.95
2018-11-20T16:45:07.115Z,14.68
2018-11-20T16:50:05.086Z,13.65
2018-11-20T16:55:05.878Z,15.25
2018-11-20T17:00:00.231Z,15.03
2018-11-20T17:02:30.621Z,12.43
2018-11-20T17:07:27.777Z,15.93
2018-11-20T17:12:28.534Z,11.97
2018-11-20T17:17:25.329Z,13.80
2018-11-20T17:24:58.832Z,17.67
2018-11-20T17:30:01.072Z,14.33
2018-11-20T17:32:30.776Z,17.90
2018-11-20T17:37:30.332Z,15.35
2018-11-20T17:42:28.302Z,15.65
2018-11-20T17:47:25.557Z,15.45
2018-11-20T17:52:24.150Z,16.85
2018-11-20T17:57:21.892Z,15.93
2018-11-20T18:02:18.774Z,17.02
2018-11-20T18:07:17.855Z,16.10
2018-11-20T18:12:17.852Z,16.05
2018-11-20T18:17:20.174Z,17.25
2018-11-20T18:22:17.425Z,16.93
2018-11-20T18:27:19.005Z,17.60
2018-11-20T18:32:15.205Z,14.53
2018-11-20T18:37:16.091Z,14.33
2018-11-20T18:42:16.089Z,13.00
2018-11-20T18:47:13.085Z,16.10
2018-11-20T18:54:41.185Z,15.15
2018-11-20T18:59:37.993Z,13.25
2018-11-20T19:04:37.773Z,16.60
2018-11-20T19:09:34.903Z,17.65
2018-11-20T19:14:31.787Z,18.50
2018-11-20T19:19:29.848Z,19.98
2018-11-20T19:24:35.733Z,20.23
2018-11-20T19:29:33.580Z,20.17
2018-11-20T19:34:31.554Z,21.25
2018-11-20T19:39:37.255Z,19.57
2018-11-20T19:44:36.537Z,18.12
2018-11-20T19:52:12.085Z,17.55
2018-11-20T19:57:18.024Z,18.10
2018-11-20T20:00:18.460Z,17.07
2018-11-20T20:05:15.464Z,17.12
2018-11-20T20:10:18.613Z,16.80
2018-11-20T20:15:13.191Z,16.95
2018-11-20T20:23:08.048Z,16.82
2018-11-20T20:25:37.761Z,15.70
2018-11-20T20:33:09.992Z,18.50
2018-11-20T20:35:37.010Z,19.30
2018-11-20T20:40:52.687Z,19.20
2018-11-20T20:45:50.953Z,19.40
2018-11-20T20:58:35.723Z,16.05
2018-11-20T21:01:02.563Z,19.23
2018-11-20T21:03:51.910Z,22.82
2018-11-20T21:11:26.929Z,19.35
2018-11-20T21:16:25.553Z,22.77
2018-11-20T21:18:55.858Z,18.67
2018-11-20T21:23:55.049Z,16.67
2018-11-20T21:28:54.405Z,18.05
2018-11-20T21:31:24.292Z,16.07
2018-11-20T21:36:23.608Z,18.20
2018-11-20T21:43:56.001Z,18.70
2018-11-20T21:46:26.071Z,15.65
2018-11-20T21:48:55.919Z,19.40
2018-11-20T21:53:53.765Z,18.92
2018-11-20T21:58:50.674Z,20.40
2018-11-20T22:03:50.098Z,19.37
2018-11-20T22:06:19.840Z,21.55
2018-11-20T22:11:19.327Z,16.25
2018-11-20T22:17:20.899Z,18.05
2018-11-20T22:20:07.026Z,21.45
2018-11-20T22:23:09.644Z,16.27
2018-11-20T22:25:54.719Z,20.92
2018-11-20T22:28:40.702Z,18.50
2018-11-20T22:31:34.357Z,20.37
2018-11-20T22:34:22.101Z,21.90
2018-11-20T22:37:12.554Z,24.35
2018-11-20T22:39:58.335Z,26.48
2018-11-20T22:42:45.839Z,34.88
2018-11-20T22:45:26.321Z,20.88
2018-11-20T22:48:19.606Z,23.60
2018-11-20T22:51:05.694Z,18.77
2018-11-20T22:53:51.800Z,22.55
2018-11-20T22:56:45.302Z,37.50
2018-11-20T22:59:19.943Z,25.05
2018-11-20T23:02:06.226Z,19.25
2018-11-20T23:04:54.317Z,19.75
2018-11-20T23:07:41.368Z,18.00
2018-11-20T23:10:10.020Z,17.25
2018-11-20T23:12:38.353Z,27.42
2018-11-20T23:15:09.974Z,23.38
2018-11-20T23:17:38.618Z,22.42
2018-11-20T23:20:07.929Z,20.48
2018-11-20T23:22:36.722Z,20.55
2018-11-20T23:25:06.083Z,18.62
2018-11-20T23:27:34.795Z,15.72
2018-11-20T23:30:03.506Z,24.63
2018-11-20T23:32:31.732Z,17.07
2018-11-20T23:34:59.955Z,27.40
2018-11-20T23:37:28.173Z,18.82
2018-11-20T23:39:56.482Z,19.02
2018-11-20T23:42:25.130Z,20.92
2018-11-20T23:44:53.390Z,22.35
2018-11-20T23:47:21.610Z,19.37
2018-11-20T23:49:49.940Z,25.55
2018-11-20T23:52:18.556Z,22.25
2018-11-20T23:54:47.131Z,30.80
2018-11-20T23:57:15.387Z,26.68
2018-11-20T23:59:43.870Z,28.25
